CheckWX is a tool to help pilots better visualize weather data.  It is not intended as a substitute for an official pre-flight weather briefing.

22:04:59 UTC

KMEM TAF
Memphis International Airport
Memphis, Tennessee, USA
KMEM 192112Z 1921/2024 16005KT P6SM SCT150 FM200900 16004KT P6SM OVC050 FM201400 17007KT P6SM OVC050

Oct-19@
21:00 UTC

Oct-19 @ 21:00 UTC

Oct-20@
09:00 UTC

Oct-20 @ 09:00 UTC

KMEM 192112Z 1921/2024 16005KT P6SM SCT150
Wind
  • 160° at 5 KTS
Cloud Levels
  • Scattered at 15,000' AGL

Oct-20@
09:00 UTC

Oct-20 @ 09:00 UTC

Oct-20@
14:00 UTC

Oct-20 @ 14:00 UTC

FM200900 16004KT P6SM OVC050

From

From Standard forecast or significant change

Wind
  • 160° at 4 KTS
Cloud Levels
  • Overcast at 5,000' AGL

Oct-20@
14:00 UTC

Oct-20 @ 14:00 UTC

Oct-21@
00:00 UTC

Oct-21 @ 00:00 UTC

FM201400 17007KT P6SM OVC050

From

From Standard forecast or significant change

Wind
  • 170° at 7 KTS
Cloud Levels
  • Overcast at 5,000' AGL